Time;durP1;ratioP1;P1;durP2;ratioP2;P2;SDS_P1;SDS_P2;PMS_P1;PMS_P2;Temp;Humidity;BMP_temperature;BMP_pressure;BME280_temperature;BME280_humidity;BME280_pressure;Samples;Min_cycle;Max_cycle;Signal;HPM_P1;HPM_P2
2023/05/20 00:00:54;;;;;;;7.93;7.23;;;11.90;99.90;;;;;;5037527;28;20515;-77
2023/05/20 00:03:22;;;;;;;8.60;7.43;;;11.90;99.90;;;;;;5044919;28;20521;-77
2023/05/20 00:05:49;;;;;;;7.77;7.10;;;11.90;99.90;;;;;;5046090;28;20462;-77
2023/05/20 00:08:18;;;;;;;9.00;8.23;;;11.80;99.90;;;;;;5047048;28;20457;-77
2023/05/20 00:10:45;;;;;;;9.90;8.20;;;11.80;99.90;;;;;;5046229;28;21058;-77
2023/05/20 00:13:12;;;;;;;9.93;8.70;;;11.80;99.90;;;;;;5048468;28;20449;-77
2023/05/20 00:15:40;;;;;;;8.97;8.17;;;11.80;99.90;;;;;;5044777;28;20703;-77
2023/05/20 00:18:07;;;;;;;8.40;7.63;;;11.80;99.90;;;;;;5048263;28;20967;-77
2023/05/20 00:20:35;;;;;;;9.43;8.53;;;11.80;99.90;;;;;;5041852;28;20458;-77
2023/05/20 00:23:02;;;;;;;8.57;7.77;;;11.80;99.90;;;;;;5044048;28;21426;-77
2023/05/20 00:25:30;;;;;;;8.00;7.30;;;11.80;99.90;;;;;;5045903;28;20480;-77
2023/05/20 00:27:57;;;;;;;9.33;8.00;;;11.80;99.90;;;;;;5043138;28;20541;-77
2023/05/20 00:30:24;;;;;;;8.87;8.00;;;11.70;99.90;;;;;;5046704;28;20616;-77
2023/05/20 00:32:53;;;;;;;12.00;10.37;;;11.70;99.90;;;;;;5046996;28;20536;-77
2023/05/20 00:35:20;;;;;;;10.90;9.80;;;11.80;99.90;;;;;;5046480;28;20995;-77
2023/05/20 00:37:47;;;;;;;10.70;9.60;;;11.80;99.90;;;;;;5043200;28;20885;-77
2023/05/20 00:40:14;;;;;;;11.33;8.77;;;11.90;99.90;;;;;;5047364;28;20512;-77
2023/05/20 00:42:41;;;;;;;10.40;9.20;;;11.90;99.90;;;;;;5045536;28;20816;-77
2023/05/20 00:45:09;;;;;;;12.03;10.77;;;11.80;99.90;;;;;;5046320;28;20505;-77
2023/05/20 00:47:36;;;;;;;10.93;9.83;;;11.90;99.90;;;;;;5047221;28;20963;-77
2023/05/20 00:50:06;;;;;;;12.27;10.17;;;11.80;99.90;;;;;;5045891;28;20884;-77
2023/05/20 00:52:33;;;;;;;10.30;9.20;;;11.80;99.90;;;;;;5046342;28;20518;-77
2023/05/20 00:55:00;;;;;;;12.30;11.13;;;11.80;99.90;;;;;;5041861;28;20500;-77
2023/05/20 00:57:27;;;;;;;13.40;12.10;;;11.70;99.90;;;;;;5046217;28;20462;-77
2023/05/20 00:59:55;;;;;;;13.50;10.17;;;11.70;99.90;;;;;;5042630;28;20517;-77
2023/05/20 01:02:22;;;;;;;11.90;10.70;;;11.70;99.90;;;;;;5046629;28;20999;-77
2023/05/20 01:04:49;;;;;;;13.63;12.23;;;11.70;99.90;;;;;;5046876;28;20507;-77
2023/05/20 01:07:19;;;;;;;14.60;13.10;;;11.80;99.90;;;;;;5045838;28;20437;-77
2023/05/20 01:09:46;;;;;;;11.93;10.47;;;11.80;99.90;;;;;;5044702;28;20513;-77
2023/05/20 01:12:16;;;;;;;13.23;11.00;;;11.80;99.90;;;;;;5047370;28;20441;-77
2023/05/20 01:14:48;;;;;;;13.47;12.17;;;11.80;99.90;;;;;;5041498;28;20481;-77
2023/05/20 01:17:16;;;;;;;12.40;11.20;;;11.80;99.90;;;;;;5046170;28;20441;-77
2023/05/20 01:19:45;;;;;;;12.83;11.53;;;11.80;99.90;;;;;;5042530;28;20457;-77
2023/05/20 01:22:13;;;;;;;12.57;11.10;;;11.70;99.90;;;;;;5046471;28;20457;-77
2023/05/20 01:24:43;;;;;;;12.20;10.53;;;11.70;99.90;;;;;;5043894;28;20940;-77
2023/05/20 01:27:12;;;;;;;13.73;12.17;;;11.70;99.90;;;;;;5043149;28;20920;-77
2023/05/20 01:29:39;;;;;;;16.50;10.90;;;11.70;99.90;;;;;;5038332;28;20481;-77
2023/05/20 01:32:10;;;;;;;17.40;12.30;;;11.80;99.90;;;;;;5044912;28;20509;-77
2023/05/20 01:34:38;;;;;;;14.70;12.30;;;11.80;99.90;;;;;;5046576;28;20506;-77
2023/05/20 01:37:08;;;;;;;14.37;12.97;;;11.80;99.90;;;;;;5044508;28;20465;-78
2023/05/20 01:39:38;;;;;;;13.57;12.13;;;11.70;99.90;;;;;;5042605;28;20968;-77
2023/05/20 01:42:08;;;;;;;16.20;13.90;;;11.70;99.90;;;;;;5046040;28;20518;-77
2023/05/20 01:44:35;;;;;;;13.20;11.80;;;11.60;99.90;;;;;;5046181;28;20538;-77
2023/05/20 01:47:03;;;;;;;16.47;14.60;;;11.60;99.90;;;;;;5045052;28;20469;-77
2023/05/20 01:49:30;;;;;;;17.80;14.67;;;11.60;99.90;;;;;;5046823;28;20850;-77
2023/05/20 01:51:57;;;;;;;17.77;15.97;;;11.60;99.90;;;;;;5045297;28;21072;-77
2023/05/20 01:54:24;;;;;;;21.30;18.40;;;11.60;99.90;;;;;;5045046;28;20500;-77
2023/05/20 01:56:51;;;;;;;19.50;16.83;;;11.70;99.90;;;;;;5041317;28;20489;-77
2023/05/20 01:59:19;;;;;;;21.90;18.07;;;11.70;99.90;;;;;;5046223;28;20472;-77
2023/05/20 02:01:46;;;;;;;21.73;18.47;;;11.60;99.90;;;;;;5043502;28;20539;-77
2023/05/20 02:04:13;;;;;;;22.80;18.37;;;11.60;99.90;;;;;;5046349;28;20515;-77
2023/05/20 02:06:40;;;;;;;21.80;19.50;;;11.50;99.90;;;;;;5044379;28;20453;-77
2023/05/20 02:09:07;;;;;;;21.87;18.30;;;11.50;99.90;;;;;;5044865;28;20494;-77
2023/05/20 02:11:35;;;;;;;23.53;19.40;;;11.50;99.90;;;;;;5047197;28;20958;-77
2023/05/20 02:14:02;;;;;;;20.57;17.93;;;11.50;99.90;;;;;;5045589;28;20465;-77
2023/05/20 02:16:30;;;;;;;24.00;19.23;;;11.50;99.90;;;;;;5040470;28;20446;-77
2023/05/20 02:18:57;;;;;;;21.20;18.33;;;11.50;99.90;;;;;;5047196;28;20437;-77
2023/05/20 02:21:24;;;;;;;26.63;19.30;;;11.50;99.90;;;;;;5046223;28;20468;-77
2023/05/20 02:23:51;;;;;;;24.37;21.23;;;11.50;99.90;;;;;;5042891;28;20448;-77
2023/05/20 02:26:19;;;;;;;28.20;20.33;;;11.50;99.90;;;;;;5045983;28;21993;-77
2023/05/20 02:28:49;;;;;;;24.07;20.37;;;11.50;99.90;;;;;;5043306;28;20461;-77
2023/05/20 02:31:16;;;;;;;25.10;19.80;;;11.50;99.90;;;;;;5041608;28;20485;-77
2023/05/20 02:33:45;;;;;;;21.63;17.97;;;11.50;99.90;;;;;;5046675;28;20437;-77
2023/05/20 02:36:12;;;;;;;26.77;21.30;;;11.50;99.90;;;;;;5047600;28;20526;-77
2023/05/20 02:38:39;;;;;;;23.17;18.77;;;11.60;99.90;;;;;;5042927;28;20884;-77
2023/05/20 02:41:06;;;;;;;22.50;17.50;;;11.50;99.90;;;;;;5043796;28;20480;-77
2023/05/20 02:43:35;;;;;;;23.07;19.13;;;11.50;99.90;;;;;;5045765;28;20462;-77
2023/05/20 02:46:02;;;;;;;20.57;18.37;;;11.40;99.90;;;;;;5046970;28;20507;-77
2023/05/20 02:48:29;;;;;;;23.80;18.90;;;11.30;99.90;;;;;;5046218;28;20461;-77
2023/05/20 02:50:59;;;;;;;23.67;20.83;;;11.30;99.90;;;;;;5045787;28;20534;-77
2023/05/20 02:53:26;;;;;;;23.57;20.13;;;11.10;99.90;;;;;;5037285;28;20738;-77
2023/05/20 02:55:53;;;;;;;20.47;18.30;;;11.10;99.90;;;;;;5044012;28;20948;-77
2023/05/20 02:58:25;;;;;;;24.13;20.13;;;11.10;99.90;;;;;;5047138;28;20560;-77
2023/05/20 03:00:52;;;;;;;24.03;19.73;;;11.00;99.90;;;;;;5046038;28;20550;-78
2023/05/20 03:03:19;;;;;;;27.30;21.70;;;10.90;99.90;;;;;;5046124;28;20532;-77
2023/05/20 03:05:46;;;;;;;24.17;20.27;;;10.90;99.90;;;;;;5041667;28;20474;-77
2023/05/20 03:08:14;;;;;;;25.37;20.40;;;11.00;99.90;;;;;;5042048;28;20940;-78
2023/05/20 03:10:41;;;;;;;29.17;19.63;;;10.90;99.90;;;;;;5046988;28;20492;-78
2023/05/20 03:13:10;;;;;;;24.50;19.77;;;10.90;99.90;;;;;;5046483;28;20495;-77
2023/05/20 03:15:37;;;;;;;25.07;20.90;;;10.90;99.90;;;;;;5047145;28;20457;-77
2023/05/20 03:18:04;;;;;;;26.03;20.50;;;10.90;99.90;;;;;;5045254;28;21093;-77
2023/05/20 03:20:32;;;;;;;30.67;22.07;;;10.90;99.90;;;;;;5046183;28;20515;-77
2023/05/20 03:22:59;;;;;;;29.80;21.13;;;10.90;99.90;;;;;;5042173;28;20469;-77
2023/05/20 03:25:28;;;;;;;28.87;22.43;;;11.00;99.90;;;;;;5045473;28;20437;-77
2023/05/20 03:27:55;;;;;;;27.67;22.07;;;10.90;99.90;;;;;;5045730;28;20492;-77
2023/05/20 03:30:22;;;;;;;32.63;24.13;;;11.00;99.90;;;;;;5038329;28;20485;-77
2023/05/20 03:32:49;;;;;;;36.90;24.77;;;11.00;99.90;;;;;;5045868;28;20476;-78
2023/05/20 03:35:16;;;;;;;25.80;22.20;;;10.90;99.90;;;;;;5045392;28;20864;-77
2023/05/20 03:37:43;;;;;;;32.57;21.70;;;11.00;99.90;;;;;;5044375;28;20465;-77
2023/05/20 03:40:10;;;;;;;27.77;22.80;;;11.00;99.90;;;;;;5042106;28;20453;-78
2023/05/20 03:42:39;;;;;;;32.27;24.03;;;10.90;99.90;;;;;;5047691;28;20478;-78
2023/05/20 03:45:07;;;;;;;29.17;23.00;;;10.90;99.90;;;;;;5048950;28;20481;-77
2023/05/20 03:47:34;;;;;;;30.20;23.23;;;11.00;99.90;;;;;;5050309;28;20511;-77
2023/05/20 03:50:01;;;;;;;31.30;23.13;;;10.90;99.90;;;;;;5048747;28;20531;-77
2023/05/20 03:52:28;;;;;;;31.80;22.73;;;11.00;99.90;;;;;;5039255;28;20458;-77
2023/05/20 03:54:55;;;;;;;33.47;23.20;;;11.00;99.90;;;;;;5047784;28;20488;-77
2023/05/20 03:57:22;;;;;;;33.90;23.10;;;10.90;99.90;;;;;;5050536;28;20441;-77
2023/05/20 03:59:51;;;;;;;28.40;21.33;;;10.90;99.90;;;;;;5044590;28;20453;-77
2023/05/20 04:02:18;;;;;;;27.40;20.77;;;10.90;99.90;;;;;;5049424;28;20465;-77
2023/05/20 04:04:45;;;;;;;27.33;20.80;;;10.90;99.90;;;;;;5047806;28;20482;-77
2023/05/20 04:07:12;;;;;;;23.33;20.80;;;11.00;99.90;;;;;;5049520;28;21282;-77
2023/05/20 04:09:39;;;;;;;32.10;23.80;;;11.00;99.90;;;;;;5047542;28;20824;-77
2023/05/20 04:12:06;;;;;;;27.17;21.60;;;11.00;99.90;;;;;;5049790;28;20573;-77
2023/05/20 04:14:34;;;;;;;28.60;20.33;;;11.00;99.90;;;;;;5049142;28;20565;-77
2023/05/20 04:17:04;;;;;;;26.30;20.77;;;10.90;99.90;;;;;;5048656;28;20900;-77
2023/05/20 04:19:31;;;;;;;35.63;22.23;;;11.00;99.90;;;;;;5048270;28;20440;-77
2023/05/20 04:21:58;;;;;;;31.10;21.83;;;11.10;99.90;;;;;;5048176;28;20469;-77
2023/05/20 04:24:26;;;;;;;26.13;21.83;;;11.20;99.90;;;;;;5045513;28;20475;-77
2023/05/20 04:26:53;;;;;;;29.00;23.03;;;11.20;99.90;;;;;;5046798;28;20461;-77
2023/05/20 04:29:21;;;;;;;25.40;20.17;;;11.20;99.90;;;;;;5042030;28;20519;-76
2023/05/20 04:31:49;;;;;;;28.97;20.13;;;11.30;99.90;;;;;;5049443;28;21132;-77
2023/05/20 04:34:18;;;;;;;32.23;23.73;;;11.30;99.90;;;;;;5048558;28;20578;-77
2023/05/20 04:36:45;;;;;;;31.00;22.93;;;11.20;99.90;;;;;;5048911;28;20460;-77
2023/05/20 04:39:14;;;;;;;26.37;20.60;;;11.20;99.90;;;;;;5037860;28;20949;-76
2023/05/20 04:41:41;;;;;;;24.40;19.93;;;11.20;99.90;;;;;;5048865;28;20465;-77
2023/05/20 04:44:08;;;;;;;33.80;25.20;;;11.00;99.90;;;;;;5045574;28;20581;-77
2023/05/20 04:46:35;;;;;;;28.43;21.30;;;10.90;99.90;;;;;;5039259;28;20932;-77
2023/05/20 04:49:03;;;;;;;31.30;22.10;;;10.90;99.90;;;;;;5048750;28;20925;-77
2023/05/20 04:51:33;;;;;;;35.17;24.57;;;11.00;99.90;;;;;;5048018;28;20596;-77
2023/05/20 04:54:00;;;;;;;28.40;22.07;;;11.00;99.90;;;;;;5036358;28;20449;-77
2023/05/20 04:56:27;;;;;;;31.93;21.63;;;10.90;99.90;;;;;;5046668;28;20450;-76
2023/05/20 04:58:54;;;;;;;25.47;20.10;;;10.90;99.90;;;;;;5047744;28;20457;-77
2023/05/20 05:01:21;;;;;;;30.97;21.57;;;10.90;99.90;;;;;;5045855;28;20472;-77
2023/05/20 05:03:48;;;;;;;27.60;21.07;;;10.90;99.90;;;;;;5048767;28;20511;-76
2023/05/20 05:06:15;;;;;;;29.33;22.30;;;10.90;99.90;;;;;;5040431;28;20497;-77
2023/05/20 05:08:44;;;;;;;29.60;20.87;;;10.90;99.90;;;;;;5032773;28;20500;-77
2023/05/20 05:11:11;;;;;;;30.43;20.53;;;11.00;99.90;;;;;;5040568;28;20479;-77
2023/05/20 05:13:38;;;;;;;29.87;19.50;;;11.10;99.90;;;;;;5032722;28;20458;-77
2023/05/20 05:16:05;;;;;;;25.43;21.10;;;11.10;99.90;;;;;;5036554;28;20446;-77
2023/05/20 05:18:32;;;;;;;26.10;20.60;;;11.10;99.90;;;;;;5038947;28;20445;-77
2023/05/20 05:21:01;;;;;;;31.77;23.20;;;11.10;99.90;;;;;;5033100;28;20512;-77
2023/05/20 05:23:28;;;;;;;29.33;21.70;;;11.20;99.90;;;;;;5030736;28;20439;-77
2023/05/20 05:25:57;;;;;;;30.20;22.00;;;11.30;99.90;;;;;;5036396;28;20469;-77
2023/05/20 05:28:24;;;;;;;30.90;22.70;;;11.30;99.90;;;;;;5040914;28;20518;-77
2023/05/20 05:30:53;;;;;;;28.67;21.00;;;11.50;99.90;;;;;;5039000;28;20492;-77
2023/05/20 05:33:20;;;;;;;35.47;24.17;;;11.50;99.90;;;;;;5043931;28;20802;-77
2023/05/20 05:35:47;;;;;;;28.23;20.17;;;11.50;99.90;;;;;;5040279;28;20494;-77
2023/05/20 05:38:14;;;;;;;31.30;20.80;;;11.60;99.90;;;;;;5028689;28;20481;-77
2023/05/20 05:40:41;;;;;;;25.33;19.63;;;11.50;99.90;;;;;;5037658;28;20496;-77
2023/05/20 05:43:09;;;;;;;26.17;19.67;;;11.40;99.90;;;;;;5034622;28;20460;-77
2023/05/20 05:45:37;;;;;;;29.80;21.43;;;11.40;99.90;;;;;;5035886;28;20501;-77
2023/05/20 05:48:04;;;;;;;26.40;20.67;;;11.60;99.90;;;;;;5040242;28;20523;-77
2023/05/20 05:50:31;;;;;;;35.47;22.80;;;11.60;99.90;;;;;;5032637;28;20585;-77
2023/05/20 05:52:58;;;;;;;27.07;20.87;;;11.60;99.90;;;;;;5036448;28;20547;-77
2023/05/20 05:55:25;;;;;;;28.60;22.07;;;11.70;99.90;;;;;;5041371;28;20457;-77
2023/05/20 05:57:52;;;;;;;28.70;23.17;;;11.90;99.90;;;;;;5037448;28;20458;-77
2023/05/20 06:00:20;;;;;;;29.70;20.57;;;11.90;99.90;;;;;;5034959;28;20461;-77
2023/05/20 06:02:47;;;;;;;25.93;21.13;;;11.90;99.90;;;;;;5029836;28;20518;-77
2023/05/20 06:05:17;;;;;;;25.87;19.63;;;11.90;99.90;;;;;;5037422;28;20485;-77
2023/05/20 06:07:44;;;;;;;29.70;21.90;;;11.80;99.90;;;;;;5044205;28;20499;-77
2023/05/20 06:10:11;;;;;;;28.33;20.87;;;12.00;99.90;;;;;;5041595;28;20523;-77
2023/05/20 06:12:38;;;;;;;28.43;21.60;;;11.90;99.90;;;;;;5027663;28;21128;-78
2023/05/20 06:15:06;;;;;;;27.60;21.53;;;12.00;99.90;;;;;;5039444;28;20470;-78
2023/05/20 06:17:35;;;;;;;29.60;21.67;;;12.10;99.90;;;;;;5034027;28;20460;-78
2023/05/20 06:20:02;;;;;;;29.97;21.30;;;12.10;99.90;;;;;;5038793;28;20482;-78
2023/05/20 06:22:29;;;;;;;30.50;22.60;;;11.90;99.90;;;;;;5030531;28;20448;-78
2023/05/20 06:24:59;;;;;;;30.07;23.43;;;11.80;99.90;;;;;;5029498;28;20515;-78
2023/05/20 06:27:26;;;;;;;31.77;22.93;;;11.80;99.90;;;;;;5041365;28;20465;-77
2023/05/20 06:29:54;;;;;;;29.17;23.13;;;11.90;99.90;;;;;;5035696;28;20445;-77
2023/05/20 06:32:20;;;;;;;29.23;20.87;;;11.90;99.90;;;;;;5041666;28;21191;-77
2023/05/20 06:34:49;;;;;;;33.50;22.90;;;12.00;99.90;;;;;;5041495;28;21025;-77
2023/05/20 06:37:16;;;;;;;24.57;18.97;;;12.10;99.90;;;;;;5036501;28;20862;-78
2023/05/20 06:39:43;;;;;;;24.67;20.10;;;12.20;99.90;;;;;;5036240;28;20449;-77
2023/05/20 06:42:10;;;;;;;31.20;19.43;;;12.30;99.90;;;;;;5040778;28;20997;-77
2023/05/20 06:44:36;;;;;;;26.93;20.00;;;12.50;99.90;;;;;;5034580;28;20481;-78
2023/05/20 06:47:04;;;;;;;27.67;21.20;;;12.90;99.90;;;;;;5045774;28;20493;-77
2023/05/20 06:49:30;;;;;;;24.90;20.10;;;13.30;99.90;;;;;;5037849;28;20515;-78
2023/05/20 06:51:59;;;;;;;25.43;20.53;;;13.30;99.90;;;;;;5043673;28;20500;-78
2023/05/20 06:54:26;;;;;;;25.43;19.83;;;13.20;99.90;;;;;;5039626;28;20473;-77
2023/05/20 06:56:53;;;;;;;24.53;18.50;;;13.30;99.90;;;;;;5046549;28;20445;-77
2023/05/20 06:59:19;;;;;;;20.60;17.90;;;13.40;99.90;;;;;;5043331;28;20817;-77
2023/05/20 07:01:46;;;;;;;23.83;18.90;;;13.30;99.90;;;;;;5038925;28;20494;-77
2023/05/20 07:04:13;;;;;;;25.00;19.90;;;13.30;99.90;;;;;;5037385;28;20454;-77
2023/05/20 07:06:40;;;;;;;24.47;18.90;;;13.30;99.90;;;;;;5030425;28;20458;-78
2023/05/20 07:09:08;;;;;;;22.90;18.40;;;13.60;99.90;;;;;;5028481;28;20516;-78
2023/05/20 07:11:35;;;;;;;20.00;18.00;;;13.70;99.90;;;;;;5026986;28;20482;-78
2023/05/20 07:14:02;;;;;;;29.03;20.20;;;13.80;99.90;;;;;;5036531;28;20828;-77
2023/05/20 07:16:31;;;;;;;26.33;20.17;;;13.80;99.90;;;;;;5038110;28;20474;-77
2023/05/20 07:18:58;;;;;;;22.13;17.10;;;13.80;99.90;;;;;;5026751;28;20506;-78
2023/05/20 07:21:25;;;;;;;21.17;16.67;;;14.00;99.90;;;;;;5042703;28;20496;-78
2023/05/20 07:23:52;;;;;;;20.40;16.20;;;14.30;99.90;;;;;;5041843;28;20522;-78
2023/05/20 07:26:20;;;;;;;20.07;16.33;;;14.30;99.90;;;;;;5032029;28;20462;-78
2023/05/20 07:28:47;;;;;;;21.20;16.60;;;14.30;99.90;;;;;;5035635;28;20523;-78
2023/05/20 07:31:14;;;;;;;17.33;15.53;;;14.50;99.90;;;;;;5045691;28;20508;-78
2023/05/20 07:33:41;;;;;;;18.57;15.73;;;14.80;99.90;;;;;;5047373;28;20472;-78
2023/05/20 07:36:08;;;;;;;19.60;14.30;;;14.70;99.90;;;;;;5050027;28;20546;-78
2023/05/20 07:38:35;;;;;;;16.80;14.20;;;15.10;99.90;;;;;;5041604;28;20465;-78
2023/05/20 07:41:02;;;;;;;17.63;15.30;;;15.30;99.90;;;;;;5042321;28;21328;-78
2023/05/20 07:43:30;;;;;;;17.70;14.37;;;15.40;99.90;;;;;;5039151;28;20556;-77
2023/05/20 07:45:57;;;;;;;23.80;18.47;;;15.40;99.90;;;;;;5045060;28;20441;-78
2023/05/20 07:48:24;;;;;;;20.50;15.70;;;15.20;99.90;;;;;;5044024;28;20485;-78
2023/05/20 07:50:51;;;;;;;18.67;15.80;;;15.30;99.90;;;;;;5038296;28;20470;-78
2023/05/20 07:53:18;;;;;;;17.53;15.50;;;15.60;99.90;;;;;;5037786;28;20932;-79
2023/05/20 07:55:45;;;;;;;21.83;16.43;;;15.80;99.90;;;;;;5042420;28;20519;-78
2023/05/20 07:58:12;;;;;;;19.03;17.03;;;16.00;99.90;;;;;;5042367;28;20471;-78
2023/05/20 08:00:41;;;;;;;16.80;13.67;;;16.20;99.90;;;;;;5040684;28;21024;-78
2023/05/20 08:03:08;;;;;;;18.93;16.67;;;16.10;99.90;;;;;;5027205;28;20548;-78
2023/05/20 08:05:37;;;;;;;19.47;16.13;;;15.90;99.90;;;;;;5036400;28;20629;-77
2023/05/20 08:08:04;;;;;;;17.27;15.43;;;16.00;99.90;;;;;;5034672;28;20450;-78
2023/05/20 08:10:31;;;;;;;16.63;14.43;;;16.10;99.90;;;;;;5037948;28;20540;-78
2023/05/20 08:12:59;;;;;;;18.60;16.63;;;16.30;99.90;;;;;;5039811;28;20567;-77
2023/05/20 08:15:26;;;;;;;17.03;15.10;;;16.40;99.90;;;;;;5034908;28;20450;-77
2023/05/20 08:17:54;;;;;;;21.93;17.80;;;16.40;99.90;;;;;;5032369;28;20999;-78
2023/05/20 08:20:21;;;;;;;19.17;17.07;;;16.60;99.90;;;;;;5037625;28;20638;-78
2023/05/20 08:22:48;;;;;;;17.80;16.00;;;16.60;99.90;;;;;;5032304;28;20453;-78
2023/05/20 08:25:15;;;;;;;15.57;13.97;;;16.80;99.90;;;;;;5038611;28;20543;-77
2023/05/20 08:27:42;;;;;;;15.27;13.67;;;17.00;99.90;;;;;;5039274;28;20535;-77
2023/05/20 08:30:10;;;;;;;17.60;14.37;;;17.20;99.90;;;;;;5043033;28;21038;-78
2023/05/20 08:32:37;;;;;;;16.70;15.20;;;17.30;99.90;;;;;;5047449;28;20594;-78
2023/05/20 08:35:08;;;;;;;17.03;15.10;;;17.50;99.90;;;;;;5044510;28;20563;-77
2023/05/20 08:37:35;;;;;;;15.70;14.10;;;17.60;99.90;;;;;;5046505;28;20462;-77
2023/05/20 08:40:02;;;;;;;19.20;14.40;;;18.00;99.90;;;;;;5028807;28;20447;-77
2023/05/20 08:42:29;;;;;;;13.07;11.83;;;18.00;99.90;;;;;;5037758;28;20467;-78
2023/05/20 08:44:57;;;;;;;13.57;12.23;;;18.20;99.90;;;;;;5037918;28;20995;-78
2023/05/20 08:47:24;;;;;;;14.27;12.97;;;18.20;99.90;;;;;;5045132;28;20455;-78
2023/05/20 08:49:51;;;;;;;15.00;13.50;;;18.00;99.90;;;;;;5032180;28;20551;-77
2023/05/20 08:52:22;;;;;;;15.30;13.73;;;17.90;99.90;;;;;;5045745;28;20953;-77
2023/05/20 08:54:50;;;;;;;16.23;12.20;;;18.00;99.90;;;;;;5044586;28;20475;-77
2023/05/20 08:57:19;;;;;;;14.30;12.80;;;18.30;99.90;;;;;;5039847;28;20507;-77
2023/05/20 08:59:46;;;;;;;14.63;13.13;;;18.40;99.90;;;;;;5038299;28;20449;-77
2023/05/20 09:02:14;;;;;;;16.77;14.90;;;18.80;99.90;;;;;;5035489;28;20467;-78
2023/05/20 09:04:41;;;;;;;15.40;13.80;;;19.10;99.90;;;;;;5038660;28;20479;-78
2023/05/20 09:07:08;;;;;;;13.13;11.93;;;19.10;99.90;;;;;;5032838;28;20915;-77
2023/05/20 09:09:36;;;;;;;14.73;13.33;;;18.90;99.90;;;;;;5044633;28;20449;-77
2023/05/20 09:12:04;;;;;;;14.07;12.70;;;19.30;99.90;;;;;;5029361;28;20582;-78
2023/05/20 09:14:31;;;;;;;12.37;11.23;;;19.60;99.90;;;;;;5038450;28;20461;-77
2023/05/20 09:16:58;;;;;;;13.90;12.60;;;19.60;99.90;;;;;;5041220;28;20522;-77
2023/05/20 09:19:26;;;;;;;12.40;11.20;;;19.80;99.90;;;;;;5046376;28;20461;-77
2023/05/20 09:21:54;;;;;;;11.73;10.73;;;19.90;99.90;;;;;;5039653;28;20511;-78
2023/05/20 09:24:24;;;;;;;12.90;11.70;;;19.70;99.90;;;;;;5037043;28;20802;-77
2023/05/20 09:26:52;;;;;;;12.33;11.20;;;20.00;99.90;;;;;;5032420;28;20458;-77
2023/05/20 09:29:20;;;;;;;12.30;11.27;;;19.70;99.90;;;;;;5038692;28;20538;-78
2023/05/20 09:31:47;;;;;;;12.23;11.03;;;19.50;99.90;;;;;;5046900;28;20760;-77
2023/05/20 09:34:15;;;;;;;12.67;11.70;;;19.50;99.90;;;;;;5044399;28;20575;-78
2023/05/20 09:36:44;;;;;;;13.43;12.10;;;19.80;99.90;;;;;;5046618;28;20456;-77
2023/05/20 09:39:15;;;;;;;11.40;10.30;;;19.90;99.90;;;;;;5047453;28;20526;-78
2023/05/20 09:41:56;;;;;;;14.73;12.10;;;19.80;99.90;;;;;;5045437;28;20493;-78
2023/05/20 09:44:24;;;;;;;14.33;11.03;;;19.50;99.90;;;;;;5042471;28;21100;-78
2023/05/20 09:46:53;;;;;;;12.17;11.07;;;19.20;99.90;;;;;;5035851;28;20479;-78
2023/05/20 09:49:21;;;;;;;12.30;11.10;;;19.00;99.90;;;;;;5037914;28;20474;-78
2023/05/20 09:51:49;;;;;;;12.43;11.23;;;19.10;99.90;;;;;;5044969;28;20595;-77
2023/05/20 09:54:19;;;;;;;15.40;13.90;;;19.20;99.90;;;;;;5044394;28;20464;-78
2023/05/20 09:56:47;;;;;;;12.50;11.50;;;19.40;99.90;;;;;;5044269;28;20485;-77
2023/05/20 09:59:16;;;;;;;12.60;11.50;;;19.90;99.90;;;;;;5035858;28;20885;-78
2023/05/20 10:01:45;;;;;;;15.20;11.17;;;19.70;99.90;;;;;;5037429;28;20463;-77
2023/05/20 10:04:14;;;;;;;11.53;10.40;;;19.60;99.90;;;;;;5044375;28;20480;-77
2023/05/20 10:07:00;;;;;;;11.33;10.33;;;19.80;99.90;;;;;;5038187;28;20453;-78
2023/05/20 10:09:48;;;;;;;12.17;11.07;;;20.00;99.90;;;;;;5036169;28;20460;-78
2023/05/20 10:12:25;;;;;;;11.93;10.80;;;20.10;99.90;;;;;;5040678;28;20516;-77
2023/05/20 10:15:01;;;;;;;12.47;11.33;;;19.90;99.90;;;;;;5041422;28;20437;-78
2023/05/20 10:17:39;;;;;;;10.40;9.50;;;19.80;99.90;;;;;;5031339;28;21080;-77
2023/05/20 10:20:10;;;;;;;11.10;10.07;;;19.80;99.90;;;;;;5042119;28;20947;-78
2023/05/20 10:22:38;;;;;;;12.17;11.07;;;20.00;99.90;;;;;;5037644;28;20465;-77
2023/05/20 10:25:07;;;;;;;11.60;10.60;;;19.90;99.90;;;;;;5039932;28;20458;-78
2023/05/20 10:27:44;;;;;;;9.50;8.70;;;19.80;99.90;;;;;;5045330;28;20490;-78
2023/05/20 10:30:16;;;;;;;12.50;11.40;;;20.00;99.90;;;;;;5048769;28;20457;-78
2023/05/20 10:32:53;;;;;;;10.37;9.47;;;20.20;99.90;;;;;;5039157;28;20480;-77
2023/05/20 10:35:25;;;;;;;10.20;9.30;;;20.50;99.90;;;;;;5031947;28;20485;-79
2023/05/20 10:37:53;;;;;;;12.17;11.03;;;20.50;99.90;;;;;;5035246;28;20461;-78
2023/05/20 10:40:22;;;;;;;11.57;10.30;;;20.40;99.90;;;;;;5036626;28;20464;-81
2023/05/20 10:42:49;;;;;;;9.47;8.63;;;20.40;99.90;;;;;;5041647;28;20476;-79
2023/05/20 10:45:31;;;;;;;12.23;11.03;;;20.60;99.90;;;;;;5038385;28;20494;-80
2023/05/20 10:47:59;;;;;;;12.60;11.33;;;20.80;99.90;;;;;;5038791;28;21092;-80
2023/05/20 10:50:28;;;;;;;11.50;10.30;;;21.30;99.90;;;;;;5045783;28;20453;-80
2023/05/20 10:53:03;;;;;;;13.10;12.00;;;21.40;99.90;;;;;;5039436;28;20485;-81
2023/05/20 10:55:36;;;;;;;12.27;11.07;;;21.40;99.90;;;;;;5028673;28;20492;-80
2023/05/20 10:58:03;;;;;;;13.03;11.83;;;21.50;99.90;;;;;;5031027;28;20870;-80
2023/05/20 11:00:30;;;;;;;11.60;10.70;;;21.30;99.90;;;;;;5045629;28;20534;-81
2023/05/20 11:02:59;;;;;;;12.87;11.70;;;21.30;99.90;;;;;;5047328;28;20465;-84
2023/05/20 11:05:28;;;;;;;13.50;12.20;;;21.40;99.90;;;;;;5040123;28;20982;-80
2023/05/20 11:08:02;;;;;;;11.60;10.50;;;21.60;99.90;;;;;;5039088;28;20485;-81
2023/05/20 11:10:29;;;;;;;12.10;10.97;;;21.40;99.90;;;;;;5044873;28;20888;-82
2023/05/20 11:12:57;;;;;;;11.60;10.50;;;21.50;99.90;;;;;;5035565;28;20985;-78
2023/05/20 11:15:24;;;;;;;11.33;10.40;;;21.30;99.90;;;;;;5044544;28;20454;-78
2023/05/20 11:17:55;;;;;;;11.43;10.40;;;21.30;99.90;;;;;;5035074;28;20484;-77
2023/05/20 11:20:24;;;;;;;11.87;10.77;;;21.50;99.90;;;;;;5043446;28;20461;-78
2023/05/20 11:22:51;;;;;;;10.63;9.77;;;21.40;99.90;;;;;;5037690;28;20464;-78
2023/05/20 11:25:19;;;;;;;10.80;9.90;;;21.30;99.90;;;;;;5042682;28;20457;-78
2023/05/20 11:27:46;;;;;;;12.20;10.00;;;21.60;99.90;;;;;;5039805;28;20461;-78
2023/05/20 11:30:15;;;;;;;9.93;9.10;;;21.60;99.90;;;;;;5039505;28;20463;-77
2023/05/20 11:32:43;;;;;;;9.20;8.37;;;21.50;99.90;;;;;;5045326;28;21038;-78
2023/05/20 11:35:23;;;;;;;11.33;10.43;;;21.70;99.90;;;;;;5045379;28;20445;-79
2023/05/20 11:37:56;;;;;;;9.77;8.97;;;21.50;99.90;;;;;;5044935;28;20451;-78
2023/05/20 11:40:26;;;;;;;9.40;8.17;;;21.40;99.90;;;;;;5045316;28;20526;-78
2023/05/20 11:42:55;;;;;;;10.37;9.30;;;21.70;99.90;;;;;;5045365;28;20457;-79
2023/05/20 11:45:22;;;;;;;11.87;9.00;;;22.20;99.90;;;;;;5044821;28;20543;-78
2023/05/20 11:47:59;;;;;;;9.53;8.63;;;22.40;99.90;;;;;;5043709;28;20446;-79
2023/05/20 11:50:27;;;;;;;9.17;8.23;;;22.50;99.90;;;;;;5043972;28;20489;-78
2023/05/20 11:52:58;;;;;;;9.00;8.30;;;22.80;99.90;;;;;;5044834;28;20517;-78
2023/05/20 11:55:26;;;;;;;10.13;8.50;;;22.10;99.90;;;;;;5044557;28;20464;-78
2023/05/20 11:57:53;;;;;;;9.57;8.87;;;22.00;99.90;;;;;;5042059;28;20441;-78
2023/05/20 12:00:20;;;;;;;9.83;9.00;;;21.90;99.90;;;;;;5041880;28;20466;-79
2023/05/20 12:02:47;;;;;;;9.33;8.60;;;22.00;99.90;;;;;;5045542;28;20449;-78
2023/05/20 12:05:15;;;;;;;9.97;9.20;;;22.10;99.90;;;;;;5047312;28;20481;-78
2023/05/20 12:07:43;;;;;;;10.63;7.67;;;22.20;99.90;;;;;;5049174;28;20790;-78
2023/05/20 12:10:12;;;;;;;9.27;8.47;;;22.00;99.90;;;;;;5049384;28;20453;-78
2023/05/20 12:12:39;;;;;;;8.60;7.97;;;21.80;99.90;;;;;;5049524;28;20481;-78
2023/05/20 12:15:07;;;;;;;8.93;8.13;;;21.70;99.90;;;;;;5048767;28;20476;-78
2023/05/20 12:17:45;;;;;;;10.00;9.07;;;21.90;99.90;;;;;;5047840;28;20486;-78
2023/05/20 12:20:14;;;;;;;9.63;8.77;;;22.20;99.90;;;;;;5049172;28;20437;-78
2023/05/20 12:22:41;;;;;;;8.60;8.00;;;22.10;99.90;;;;;;5048388;28;20488;-78
2023/05/20 12:25:12;;;;;;;9.67;8.87;;;22.30;99.90;;;;;;5048372;28;20457;-78
2023/05/20 12:27:39;;;;;;;7.67;7.03;;;22.40;99.90;;;;;;5048731;28;20463;-78
2023/05/20 12:30:08;;;;;;;9.03;8.20;;;22.20;99.90;;;;;;5041475;28;20448;-78
2023/05/20 12:32:35;;;;;;;9.40;8.50;;;21.90;99.90;;;;;;5048669;28;20441;-79
2023/05/20 12:35:02;;;;;;;8.63;7.90;;;22.10;99.90;;;;;;5048563;28;20820;-78